Time;durP1;ratioP1;P1;durP2;ratioP2;P2;SDS_P1;SDS_P2;PMS_P1;PMS_P2;Temp;Humidity;BMP_temperature;BMP_pressure;BME280_temperature;BME280_humidity;BME280_pressure;Samples;Min_cycle;Max_cycle;Signal;HPM_P1;HPM_P2
2022/03/03 00:01:36;;;;;;;0.20;0.20;;;;;;;;;;4962851;28;20073;-87
2022/03/03 00:04:02;;;;;;;0.50;0.50;;;;;;;;;;4963114;28;20078;-87
2022/03/03 00:06:28;;;;;;;0.10;0.10;;;;;;;;;;4979197;28;20051;-87
2022/03/03 00:08:53;;;;;;;0.10;0.10;;;;;;;;;;4979226;28;20133;-86
2022/03/03 00:11:19;;;;;;;0.20;0.20;;;;;;;;;;4963060;28;20085;-86
2022/03/03 00:13:45;;;;;;;0.10;0.10;;;;;;;;;;4979057;28;20097;-86
2022/03/03 00:16:11;;;;;;;0.10;0.10;;;;;;;;;;4963042;28;20041;-87
2022/03/03 00:18:37;;;;;;;0.10;0.10;;;;;;;;;;4995014;28;20057;-87
2022/03/03 00:21:03;;;;;;;0.20;0.20;;;;;;;;;;4963051;28;20497;-87
2022/03/03 00:23:30;;;;;;;0.10;0.10;;;;;;;;;;4962786;28;20042;-87
2022/03/03 00:25:55;;;;;;;0.10;0.10;;;;;;;;;;4978870;28;20074;-87
2022/03/03 00:28:21;;;;;;;0.10;0.10;;;;;;;;;;4962948;28;20073;-89
2022/03/03 00:30:47;;;;;;;0.10;0.10;;;;;;;;;;4978560;28;20555;-87
2022/03/03 00:33:13;;;;;;;0.10;0.10;;;;;;;;;;4962927;28;20050;-87
2022/03/03 00:35:39;;;;;;;0.10;0.10;;;;;;;;;;4978983;28;20073;-87
2022/03/03 00:38:05;;;;;;;0.10;0.10;;;;;;;;;;4979196;28;20042;-88
2022/03/03 00:40:31;;;;;;;0.10;0.10;;;;;;;;;;4978643;28;20045;-87
2022/03/03 00:42:57;;;;;;;0.10;0.10;;;;;;;;;;4978857;28;20048;-87
2022/03/03 00:45:23;;;;;;;0.73;0.73;;;;;;;;;;4962809;28;20125;-87
2022/03/03 00:47:50;;;;;;;0.22;0.22;;;;;;;;;;4962500;28;20049;-87
2022/03/03 00:50:16;;;;;;;0.10;0.10;;;;;;;;;;4962585;28;20046;-88
2022/03/03 00:52:42;;;;;;;0.25;0.25;;;;;;;;;;4962466;28;20129;-88
2022/03/03 00:55:08;;;;;;;0.13;0.13;;;;;;;;;;4994424;28;20050;-87
2022/03/03 00:57:34;;;;;;;2.08;0.30;;;;;;;;;;4978326;28;20038;-87
2022/03/03 01:00:00;;;;;;;0.10;0.10;;;;;;;;;;4961984;28;20481;-87
2022/03/03 01:02:26;;;;;;;0.17;0.17;;;;;;;;;;4977876;28;20062;-87
2022/03/03 01:04:52;;;;;;;0.10;0.10;;;;;;;;;;4994092;28;20050;-87
2022/03/03 01:07:18;;;;;;;0.32;0.32;;;;;;;;;;4978398;28;20050;-87
2022/03/03 01:09:44;;;;;;;0.10;0.10;;;;;;;;;;4961747;28;20054;-87
2022/03/03 01:12:10;;;;;;;0.10;0.10;;;;;;;;;;4976466;28;20517;-87
2022/03/03 01:14:36;;;;;;;0.10;0.10;;;;;;;;;;4961581;28;20092;-87
2022/03/03 01:17:02;;;;;;;0.10;0.10;;;;;;;;;;4977767;28;20042;-87
2022/03/03 01:19:30;;;;;;;0.10;0.10;;;;;;;;;;4961652;28;20038;-87
2022/03/03 01:21:56;;;;;;;0.10;0.10;;;;;;;;;;4977497;28;20053;-87
2022/03/03 01:24:22;;;;;;;0.10;0.10;;;;;;;;;;4977662;28;20125;-88
2022/03/03 01:26:48;;;;;;;0.10;0.10;;;;;;;;;;4961622;28;20038;-87
2022/03/03 01:29:14;;;;;;;0.10;0.10;;;;;;;;;;4961557;28;20038;-86
2022/03/03 01:31:39;;;;;;;0.10;0.10;;;;;;;;;;4961260;28;20034;-85
2022/03/03 01:34:08;;;;;;;0.10;0.10;;;;;;;;;;4961107;28;20038;-86
2022/03/03 01:36:34;;;;;;;0.10;0.10;;;;;;;;;;4977893;28;20386;-86
2022/03/03 01:39:00;;;;;;;1.65;0.17;;;;;;;;;;4977341;28;20034;-86
2022/03/03 01:41:26;;;;;;;0.32;0.32;;;;;;;;;;4993549;28;20045;-86
2022/03/03 01:43:52;;;;;;;0.10;0.10;;;;;;;;;;4961254;28;20138;-87
2022/03/03 01:46:18;;;;;;;0.17;0.17;;;;;;;;;;4961117;28;20065;-87
2022/03/03 01:48:44;;;;;;;0.30;0.30;;;;;;;;;;4960957;28;20046;-87
2022/03/03 01:51:10;;;;;;;0.13;0.13;;;;;;;;;;4960851;28;20045;-87
2022/03/03 01:53:36;;;;;;;0.10;0.10;;;;;;;;;;4976926;28;20135;-86
2022/03/03 01:56:02;;;;;;;0.08;0.08;;;;;;;;;;4977288;28;20511;-87
2022/03/03 01:58:28;;;;;;;0.20;0.20;;;;;;;;;;4977354;28;20359;-86
2022/03/03 02:00:54;;;;;;;0.10;0.10;;;;;;;;;;4977313;28;20042;-87
2022/03/03 02:03:20;;;;;;;0.10;0.10;;;;;;;;;;4976819;28;20062;-87
2022/03/03 02:05:46;;;;;;;0.10;0.10;;;;;;;;;;4977135;28;20077;-86
2022/03/03 02:08:13;;;;;;;0.10;0.10;;;;;;;;;;4992904;28;20050;-87
2022/03/03 02:10:39;;;;;;;0.10;0.10;;;;;;;;;;4976883;28;20074;-86
2022/03/03 02:13:05;;;;;;;3.03;0.20;;;;;;;;;;4960545;28;20042;-86
2022/03/03 02:15:31;;;;;;;0.40;0.40;;;;;;;;;;4993051;28;20433;-86
2022/03/03 02:17:58;;;;;;;0.35;0.35;;;;;;;;;;4976784;28;20038;-88
2022/03/03 02:20:24;;;;;;;0.10;0.10;;;;;;;;;;4993475;28;20077;-88
2022/03/03 02:22:50;;;;;;;0.20;0.20;;;;;;;;;;4992494;28;20046;-87
2022/03/03 02:25:17;;;;;;;0.10;0.10;;;;;;;;;;4960472;28;20100;-86
2022/03/03 02:27:43;;;;;;;0.52;0.20;;;;;;;;;;4976397;28;20054;-87
2022/03/03 02:30:09;;;;;;;3.40;0.30;;;;;;;;;;4976198;28;20045;-86
2022/03/03 02:32:35;;;;;;;0.10;0.10;;;;;;;;;;4960098;28;20042;-86
2022/03/03 02:35:01;;;;;;;0.10;0.10;;;;;;;;;;4960084;28;20042;-86
2022/03/03 02:37:40;;;;;;;0.10;0.10;;;;;;;;;;4976049;28;20042;-87
2022/03/03 02:40:10;;;;;;;0.10;0.10;;;;;;;;;;4976188;28;20038;-87
2022/03/03 02:42:36;;;;;;;0.10;0.10;;;;;;;;;;4976095;28;20054;-87
2022/03/03 02:45:02;;;;;;;0.10;0.10;;;;;;;;;;4976196;28;20073;-86
2022/03/03 02:47:28;;;;;;;0.90;0.90;;;;;;;;;;4992170;28;20264;-86
2022/03/03 02:49:54;;;;;;;0.10;0.10;;;;;;;;;;4975889;28;20042;-86
2022/03/03 02:52:20;;;;;;;0.20;0.20;;;;;;;;;;4992322;28;20449;-86
2022/03/03 02:54:46;;;;;;;0.10;0.10;;;;;;;;;;4992180;28;20046;-86
2022/03/03 02:59:57;;;;;;;0.10;0.10;;;;;;;;;;4978608;28;20053;-86
2022/03/03 03:02:23;;;;;;;0.10;0.10;;;;;;;;;;4991908;28;20450;-88
2022/03/03 03:04:49;;;;;;;0.10;0.10;;;;;;;;;;4960075;28;20053;-88
2022/03/03 03:07:15;;;;;;;0.20;0.20;;;;;;;;;;4959693;28;20053;-86
2022/03/03 03:09:41;;;;;;;0.35;0.15;;;;;;;;;;4959859;28;20046;-87
2022/03/03 03:12:08;;;;;;;0.20;0.20;;;;;;;;;;4975608;28;20042;-87
2022/03/03 03:14:34;;;;;;;0.15;0.15;;;;;;;;;;4959704;28;20053;-87
2022/03/03 03:17:00;;;;;;;0.10;0.10;;;;;;;;;;4959788;28;20038;-86
2022/03/03 03:19:26;;;;;;;0.20;0.20;;;;;;;;;;4975687;28;20121;-87
2022/03/03 03:21:52;;;;;;;0.10;0.10;;;;;;;;;;4975525;28;20038;-87
2022/03/03 03:24:18;;;;;;;0.20;0.20;;;;;;;;;;4975494;28;20056;-86
2022/03/03 03:26:44;;;;;;;0.10;0.10;;;;;;;;;;4975429;28;20556;-87
2022/03/03 03:29:10;;;;;;;0.10;0.10;;;;;;;;;;4959357;28;20042;-87
2022/03/03 03:31:36;;;;;;;0.45;0.45;;;;;;;;;;4959372;28;20042;-87
2022/03/03 03:34:02;;;;;;;0.10;0.10;;;;;;;;;;4959618;28;20046;-87
2022/03/03 03:36:28;;;;;;;0.10;0.10;;;;;;;;;;4979652;28;20042;-87
2022/03/03 03:38:54;;;;;;;0.25;0.25;;;;;;;;;;4963860;28;20093;-86
2022/03/03 03:41:20;;;;;;;0.10;0.10;;;;;;;;;;4979383;28;20379;-87
2022/03/03 03:43:46;;;;;;;0.60;0.20;;;;;;;;;;4979699;28;20130;-87
2022/03/03 03:46:12;;;;;;;0.10;0.10;;;;;;;;;;4979370;28;20050;-87
2022/03/03 03:48:38;;;;;;;0.10;0.10;;;;;;;;;;4979319;28;20425;-87
2022/03/03 03:51:04;;;;;;;3.20;0.55;;;;;;;;;;4979389;28;20093;-87
2022/03/03 03:53:30;;;;;;;0.20;0.20;;;;;;;;;;4995341;28;20042;-87
2022/03/03 03:55:56;;;;;;;0.10;0.10;;;;;;;;;;4963049;28;20039;-87
2022/03/03 03:58:22;;;;;;;0.10;0.10;;;;;;;;;;4963332;28;20064;-87
2022/03/03 04:00:48;;;;;;;0.15;0.15;;;;;;;;;;4979204;28;20042;-87
2022/03/03 04:03:14;;;;;;;0.30;0.20;;;;;;;;;;4978857;28;20501;-87
2022/03/03 04:05:40;;;;;;;0.22;0.22;;;;;;;;;;4995196;28;20449;-87
2022/03/03 04:08:06;;;;;;;1.80;1.70;;;;;;;;;;4978910;28;20104;-86
2022/03/03 04:10:32;;;;;;;0.35;0.35;;;;;;;;;;4995064;28;20125;-86
2022/03/03 04:12:58;;;;;;;0.20;0.20;;;;;;;;;;4994901;28;20049;-86
2022/03/03 04:15:24;;;;;;;0.10;0.10;;;;;;;;;;4978851;28;20038;-87
2022/03/03 04:17:50;;;;;;;0.35;0.35;;;;;;;;;;4962653;28;20034;-87
2022/03/03 04:20:18;;;;;;;0.10;0.10;;;;;;;;;;4962566;28;20064;-86
2022/03/03 04:22:44;;;;;;;0.10;0.10;;;;;;;;;;4978870;28;20053;-86
2022/03/03 04:25:10;;;;;;;0.10;0.10;;;;;;;;;;4994906;28;20042;-86
2022/03/03 04:27:37;;;;;;;0.10;0.10;;;;;;;;;;4994957;28;20516;-86
2022/03/03 04:30:04;;;;;;;0.10;0.10;;;;;;;;;;4962524;28;20042;-86
2022/03/03 04:32:30;;;;;;;0.10;0.10;;;;;;;;;;4978607;28;20042;-87
2022/03/03 04:34:56;;;;;;;0.10;0.10;;;;;;;;;;4962283;28;20045;-86
2022/03/03 04:37:22;;;;;;;0.50;0.50;;;;;;;;;;4978350;28;20537;-86
2022/03/03 04:39:48;;;;;;;0.20;0.20;;;;;;;;;;4978332;28;20066;-86
2022/03/03 04:42:14;;;;;;;0.10;0.10;;;;;;;;;;4978227;28;20042;-86
2022/03/03 04:44:40;;;;;;;0.10;0.10;;;;;;;;;;4994256;28;20038;-87
2022/03/03 04:47:06;;;;;;;0.20;0.20;;;;;;;;;;4977969;28;20042;-87
2022/03/03 04:49:32;;;;;;;0.10;0.10;;;;;;;;;;4962436;28;20043;-87
2022/03/03 04:51:58;;;;;;;0.10;0.10;;;;;;;;;;4962035;28;20096;-87
2022/03/03 04:54:24;;;;;;;0.10;0.10;;;;;;;;;;4977855;28;20042;-87
2022/03/03 04:56:51;;;;;;;0.10;0.10;;;;;;;;;;4978234;28;20034;-86
2022/03/03 04:59:17;;;;;;;0.10;0.10;;;;;;;;;;4994347;28;20050;-86
2022/03/03 05:01:43;;;;;;;0.10;0.10;;;;;;;;;;4977701;28;20062;-86
2022/03/03 05:04:09;;;;;;;0.38;0.38;;;;;;;;;;4961883;28;20042;-86
2022/03/03 05:06:35;;;;;;;0.10;0.10;;;;;;;;;;4978085;28;20042;-86
2022/03/03 05:09:01;;;;;;;0.10;0.10;;;;;;;;;;4977907;28;20041;-86
2022/03/03 05:11:27;;;;;;;0.10;0.10;;;;;;;;;;4977985;28;20038;-86
2022/03/03 05:13:53;;;;;;;0.10;0.10;;;;;;;;;;4977663;28;20539;-87
2022/03/03 05:16:19;;;;;;;0.10;0.10;;;;;;;;;;4993763;28;20034;-86
2022/03/03 05:18:45;;;;;;;0.10;0.10;;;;;;;;;;4961705;28;20049;-86
2022/03/03 05:21:11;;;;;;;0.10;0.10;;;;;;;;;;4961601;28;20093;-87
2022/03/03 05:23:37;;;;;;;0.17;0.17;;;;;;;;;;4993660;28;20052;-87
2022/03/03 05:26:03;;;;;;;0.30;0.30;;;;;;;;;;4977722;28;20049;-87
2022/03/03 05:28:29;;;;;;;0.10;0.10;;;;;;;;;;4961618;28;20097;-87
2022/03/03 05:30:55;;;;;;;0.10;0.10;;;;;;;;;;4993636;28;20485;-87
2022/03/03 05:33:21;;;;;;;0.10;0.10;;;;;;;;;;4977306;28;20074;-87
2022/03/03 05:35:47;;;;;;;0.20;0.20;;;;;;;;;;4961169;28;20046;-87
2022/03/03 05:38:13;;;;;;;0.10;0.10;;;;;;;;;;4961246;28;20048;-87
2022/03/03 05:40:39;;;;;;;0.10;0.10;;;;;;;;;;4993208;28;20042;-86
2022/03/03 05:43:05;;;;;;;0.10;0.10;;;;;;;;;;4961269;28;20042;-87
2022/03/03 05:45:34;;;;;;;0.10;0.10;;;;;;;;;;4977500;28;20038;-86
2022/03/03 05:48:00;;;;;;;0.10;0.10;;;;;;;;;;4961494;28;20042;-87
2022/03/03 05:50:26;;;;;;;0.98;0.32;;;;;;;;;;4977141;28;20078;-87
2022/03/03 05:52:54;;;;;;;0.10;0.10;;;;;;;;;;4993001;28;20054;-86
2022/03/03 05:55:20;;;;;;;0.10;0.10;;;;;;;;;;4977039;28;20048;-86
2022/03/03 05:57:47;;;;;;;0.10;0.10;;;;;;;;;;4976249;28;20401;-86
2022/03/03 06:00:17;;;;;;;0.10;0.10;;;;;;;;;;4976876;28;20042;-86
2022/03/03 06:03:13;;;;;;;0.10;0.10;;;;;;;;;;4976885;28;20170;-87
2022/03/03 06:05:39;;;;;;;0.10;0.10;;;;;;;;;;4972520;28;20065;-86
2022/03/03 06:08:05;;;;;;;0.10;0.10;;;;;;;;;;4976888;28;20124;-87
2022/03/03 06:10:32;;;;;;;0.10;0.10;;;;;;;;;;4976743;28;20450;-86
2022/03/03 06:13:17;;;;;;;0.10;0.10;;;;;;;;;;4961025;28;20043;-87
2022/03/03 06:15:43;;;;;;;0.10;0.10;;;;;;;;;;4960474;28;20035;-86
2022/03/03 06:18:09;;;;;;;0.10;0.10;;;;;;;;;;4976462;28;20042;-87
2022/03/03 06:20:35;;;;;;;0.10;0.10;;;;;;;;;;4976660;28;20410;-86
2022/03/03 06:23:01;;;;;;;0.10;0.10;;;;;;;;;;4976403;28;20053;-87
2022/03/03 06:25:27;;;;;;;0.10;0.10;;;;;;;;;;4960344;28;20053;-87
2022/03/03 06:27:53;;;;;;;0.10;0.10;;;;;;;;;;4976434;28;20050;-87
2022/03/03 06:30:19;;;;;;;0.10;0.10;;;;;;;;;;4960322;28;20386;-93
2022/03/03 06:32:44;;;;;;;0.30;0.30;;;;;;;;;;4960407;28;20129;-88
2022/03/03 06:35:10;;;;;;;0.25;0.25;;;;;;;;;;4960081;28;20604;-88
2022/03/03 06:37:36;;;;;;;0.10;0.10;;;;;;;;;;4976766;28;20069;-89
2022/03/03 06:40:03;;;;;;;0.10;0.10;;;;;;;;;;4976511;28;20144;-88
2022/03/03 06:42:30;;;;;;;0.10;0.10;;;;;;;;;;4960206;28;20045;-88
2022/03/03 06:44:55;;;;;;;0.10;0.10;;;;;;;;;;4976090;28;20042;-88
2022/03/03 06:47:22;;;;;;;0.20;0.20;;;;;;;;;;4976366;28;20105;-88
2022/03/03 06:49:49;;;;;;;0.10;0.10;;;;;;;;;;4976335;28;20038;-88
2022/03/03 06:52:16;;;;;;;0.10;0.10;;;;;;;;;;4960399;28;20082;-88
2022/03/03 06:54:43;;;;;;;0.10;0.10;;;;;;;;;;4992935;28;20092;-89
2022/03/03 06:57:09;;;;;;;0.10;0.10;;;;;;;;;;4976806;28;20339;-90
2022/03/03 06:59:35;;;;;;;0.20;0.20;;;;;;;;;;4960530;28;20039;-90
2022/03/03 07:02:02;;;;;;;0.10;0.10;;;;;;;;;;4960146;28;20058;-90
2022/03/03 07:04:29;;;;;;;0.80;0.32;;;;;;;;;;4960046;28;20050;-90
2022/03/03 07:06:55;;;;;;;0.10;0.10;;;;;;;;;;4960036;28;20057;-89
2022/03/03 07:09:21;;;;;;;0.30;0.30;;;;;;;;;;4960519;28;20042;-90
2022/03/03 07:11:48;;;;;;;0.10;0.10;;;;;;;;;;4976767;28;20048;-90
2022/03/03 07:14:14;;;;;;;0.60;0.38;;;;;;;;;;4976221;28;20128;-90
2022/03/03 07:16:43;;;;;;;0.52;0.52;;;;;;;;;;4960431;28;20038;-90
2022/03/03 07:19:18;;;;;;;0.10;0.10;;;;;;;;;;4992782;28;20437;-89
2022/03/03 07:21:47;;;;;;;0.55;0.55;;;;;;;;;;4959939;28;20157;-88
2022/03/03 07:24:13;;;;;;;0.20;0.20;;;;;;;;;;4989971;28;20085;-87
2022/03/03 07:26:39;;;;;;;0.30;0.30;;;;;;;;;;4959534;28;20129;-87
2022/03/03 07:29:05;;;;;;;0.20;0.20;;;;;;;;;;4975356;28;20121;-88
2022/03/03 07:31:31;;;;;;;0.10;0.10;;;;;;;;;;4992010;28;20069;-86
2022/03/03 07:33:59;;;;;;;0.20;0.20;;;;;;;;;;4975481;28;20047;-88
2022/03/03 07:36:28;;;;;;;0.25;0.25;;;;;;;;;;4975657;28;20076;-87
2022/03/03 07:39:01;;;;;;;0.28;0.28;;;;;;;;;;4959551;28;20035;-87
2022/03/03 07:41:27;;;;;;;0.50;0.50;;;;;;;;;;4959594;28;20046;-87
2022/03/03 07:43:54;;;;;;;0.30;0.30;;;;;;;;;;4975547;28;20493;-86
2022/03/03 07:46:20;;;;;;;0.17;0.17;;;;;;;;;;4959204;28;20042;-86
2022/03/03 07:48:46;;;;;;;0.10;0.10;;;;;;;;;;4975341;28;20557;-87
2022/03/03 07:51:12;;;;;;;0.15;0.15;;;;;;;;;;4975453;28;20046;-85
2022/03/03 07:53:38;;;;;;;0.10;0.10;;;;;;;;;;4991189;28;20142;-86
2022/03/03 07:56:04;;;;;;;0.20;0.20;;;;;;;;;;4974998;28;20042;-85
2022/03/03 07:58:33;;;;;;;0.10;0.10;;;;;;;;;;4975186;28;20038;-84
2022/03/03 08:00:59;;;;;;;0.32;0.28;;;;;;;;;;4975224;28;20042;-84
2022/03/03 08:03:25;;;;;;;0.10;0.10;;;;;;;;;;4975034;28;20061;-83
2022/03/03 08:05:55;;;;;;;0.30;0.30;;;;;;;;;;4975074;28;20083;-83
2022/03/03 08:08:21;;;;;;;0.20;0.20;;;;;;;;;;4991118;28;20038;-82
2022/03/03 08:10:47;;;;;;;0.95;0.95;;;;;;;;;;4974882;28;20049;-84
2022/03/03 08:13:15;;;;;;;0.47;0.47;;;;;;;;;;4959355;28;20042;-83
2022/03/03 08:15:41;;;;;;;0.20;0.20;;;;;;;;;;4959102;28;20038;-83
2022/03/03 08:18:08;;;;;;;0.13;0.13;;;;;;;;;;4974986;28;20422;-82
2022/03/03 08:20:34;;;;;;;0.30;0.30;;;;;;;;;;4992104;28;20524;-83
2022/03/03 08:23:00;;;;;;;0.17;0.13;;;;;;;;;;4995926;28;20101;-83
2022/03/03 08:25:26;;;;;;;0.10;0.10;;;;;;;;;;4978320;28;20058;-82
2022/03/03 08:27:53;;;;;;;0.10;0.10;;;;;;;;;;4978345;28;20053;-84
2022/03/03 08:30:19;;;;;;;0.17;0.17;;;;;;;;;;4994908;28;20100;-82
2022/03/03 08:32:49;;;;;;;0.25;0.25;;;;;;;;;;4994526;28;20050;-81
2022/03/03 08:35:16;;;;;;;0.68;0.30;;;;;;;;;;4978649;28;20038;-82
2022/03/03 08:37:43;;;;;;;0.30;0.30;;;;;;;;;;4978360;28;20046;-83
2022/03/03 08:40:12;;;;;;;0.10;0.10;;;;;;;;;;4978338;28;20040;-86
2022/03/03 08:42:39;;;;;;;1.10;0.30;;;;;;;;;;4962389;28;20043;-86
2022/03/03 08:45:06;;;;;;;0.10;0.10;;;;;;;;;;4978336;28;20038;-86
2022/03/03 08:47:32;;;;;;;0.10;0.10;;;;;;;;;;4978384;28;20046;-86
2022/03/03 08:50:00;;;;;;;0.10;0.10;;;;;;;;;;4962083;28;20043;-88
2022/03/03 08:52:27;;;;;;;0.10;0.10;;;;;;;;;;4962105;28;20069;-88
2022/03/03 08:54:53;;;;;;;0.13;0.13;;;;;;;;;;4962232;28;20042;-87
2022/03/03 08:57:19;;;;;;;0.10;0.10;;;;;;;;;;4978898;28;20482;-87
2022/03/03 08:59:45;;;;;;;0.17;0.17;;;;;;;;;;4962789;28;20057;-88
2022/03/03 09:02:16;;;;;;;0.30;0.30;;;;;;;;;;4978464;28;20130;-88
2022/03/03 09:04:43;;;;;;;0.10;0.10;;;;;;;;;;4962500;28;21425;-88
2022/03/03 09:07:09;;;;;;;0.10;0.10;;;;;;;;;;4962169;28;20093;-90
2022/03/03 09:09:34;;;;;;;0.10;0.10;;;;;;;;;;4978284;28;20046;-89
2022/03/03 09:12:01;;;;;;;0.20;0.20;;;;;;;;;;4978042;28;20038;-89
2022/03/03 09:14:28;;;;;;;0.57;0.38;;;;;;;;;;4961892;28;20509;-90
2022/03/03 09:16:54;;;;;;;0.10;0.10;;;;;;;;;;4960734;28;20085;-92
2022/03/03 09:19:21;;;;;;;0.15;0.15;;;;;;;;;;4962813;28;20048;-89
2022/03/03 09:21:47;;;;;;;0.10;0.10;;;;;;;;;;4977642;28;20084;-88
2022/03/03 09:24:15;;;;;;;0.10;0.10;;;;;;;;;;4978047;28;20088;-90
2022/03/03 09:26:41;;;;;;;0.10;0.10;;;;;;;;;;4961148;28;20077;-87
2022/03/03 09:29:07;;;;;;;0.10;0.10;;;;;;;;;;4977482;28;20050;-88
2022/03/03 09:31:33;;;;;;;0.10;0.10;;;;;;;;;;4976710;28;20046;-89
2022/03/03 09:33:59;;;;;;;0.20;0.20;;;;;;;;;;4960815;28;20077;-88
2022/03/03 09:36:25;;;;;;;0.10;0.10;;;;;;;;;;4977119;28;20128;-88
2022/03/03 09:38:51;;;;;;;0.10;0.10;;;;;;;;;;4977357;28;20090;-88
2022/03/03 09:41:17;;;;;;;0.20;0.20;;;;;;;;;;4993235;28;20045;-87
2022/03/03 09:43:43;;;;;;;0.20;0.17;;;;;;;;;;4977259;28;20110;-88
2022/03/03 09:46:10;;;;;;;0.10;0.10;;;;;;;;;;4976881;28;20502;-88
2022/03/03 09:48:36;;;;;;;0.10;0.10;;;;;;;;;;4957594;28;20042;-88
2022/03/03 09:51:02;;;;;;;0.10;0.10;;;;;;;;;;4974245;28;20047;-89
2022/03/03 09:53:28;;;;;;;0.10;0.10;;;;;;;;;;4974657;28;20097;-89
2022/03/03 09:55:55;;;;;;;0.10;0.10;;;;;;;;;;4958943;28;20050;-89
2022/03/03 09:58:21;;;;;;;0.13;0.13;;;;;;;;;;4974058;28;20125;-88
2022/03/03 10:00:47;;;;;;;0.10;0.10;;;;;;;;;;4973745;28;20039;-87
2022/03/03 10:03:14;;;;;;;0.10;0.10;;;;;;;;;;4973066;28;20062;-87
2022/03/03 10:05:45;;;;;;;0.10;0.10;;;;;;;;;;4973470;28;20054;-85
2022/03/03 10:08:12;;;;;;;0.20;0.20;;;;;;;;;;4957310;28;20130;-84
2022/03/03 10:10:39;;;;;;;0.20;0.10;;;;;;;;;;4973401;28;20058;-84
2022/03/03 10:13:05;;;;;;;0.10;0.10;;;;;;;;;;4973125;28;20125;-85
2022/03/03 10:15:31;;;;;;;0.10;0.10;;;;;;;;;;4956927;28;20047;-85
2022/03/03 10:18:01;;;;;;;0.25;0.25;;;;;;;;;;4976812;28;20039;-84
2022/03/03 10:20:28;;;;;;;0.10;0.10;;;;;;;;;;4976866;28;20454;-85
2022/03/03 10:22:57;;;;;;;0.30;0.30;;;;;;;;;;4976115;28;20042;-87
2022/03/03 10:25:27;;;;;;;0.80;0.10;;;;;;;;;;4976553;28;20058;-85
2022/03/03 10:27:53;;;;;;;0.10;0.10;;;;;;;;;;4992464;28;20049;-87
2022/03/03 10:30:19;;;;;;;0.25;0.25;;;;;;;;;;4977658;28;20042;-87
2022/03/03 10:32:47;;;;;;;0.20;0.20;;;;;;;;;;4960029;28;20529;-86
2022/03/03 10:35:14;;;;;;;0.47;0.47;;;;;;;;;;4960291;28;20437;-86
2022/03/03 10:37:40;;;;;;;0.13;0.13;;;;;;;;;;4992467;28;20042;-87
2022/03/03 10:40:06;;;;;;;0.80;0.30;;;;;;;;;;4976099;28;20042;-87
2022/03/03 10:42:32;;;;;;;0.10;0.10;;;;;;;;;;4976653;28;20061;-87
2022/03/03 10:45:08;;;;;;;0.10;0.10;;;;;;;;;;4976137;28;20042;-87
2022/03/03 10:47:34;;;;;;;0.20;0.20;;;;;;;;;;4976504;28;20038;-87
2022/03/03 10:50:00;;;;;;;0.25;0.25;;;;;;;;;;4975829;28;20121;-87
2022/03/03 10:52:28;;;;;;;0.30;0.30;;;;;;;;;;4959280;28;20047;-86
2022/03/03 10:54:58;;;;;;;0.45;0.45;;;;;;;;;;4975829;28;20073;-87
2022/03/03 10:57:30;;;;;;;0.13;0.13;;;;;;;;;;4976310;28;20367;-86
2022/03/03 10:59:57;;;;;;;0.10;0.10;;;;;;;;;;4992054;28;20046;-87
2022/03/03 11:02:23;;;;;;;0.22;0.20;;;;;;;;;;4976012;28;20062;-86
2022/03/03 11:04:49;;;;;;;0.10;0.10;;;;;;;;;;4976095;28;20129;-87
2022/03/03 11:07:18;;;;;;;0.20;0.20;;;;;;;;;;4959793;28;20124;-87
2022/03/03 11:09:43;;;;;;;0.20;0.20;;;;;;;;;;4976015;28;20042;-87
2022/03/03 11:12:09;;;;;;;0.10;0.10;;;;;;;;;;4959804;28;20042;-87
2022/03/03 11:14:36;;;;;;;0.13;0.13;;;;;;;;;;4975649;28;20039;-86
2022/03/03 11:17:02;;;;;;;0.10;0.10;;;;;;;;;;4991931;28;20038;-87
2022/03/03 11:19:29;;;;;;;0.20;0.20;;;;;;;;;;4975673;28;20141;-87
2022/03/03 11:21:55;;;;;;;0.28;0.28;;;;;;;;;;4959815;28;20436;-86
2022/03/03 11:24:21;;;;;;;0.30;0.30;;;;;;;;;;4975794;28;20049;-87
2022/03/03 11:26:47;;;;;;;0.47;0.25;;;;;;;;;;4976069;28;20052;-87
2022/03/03 11:29:15;;;;;;;0.40;0.40;;;;;;;;;;4975994;28;20054;-86
2022/03/03 11:31:41;;;;;;;0.63;0.63;;;;;;;;;;4975982;28;20508;-87
2022/03/03 11:34:20;;;;;;;0.38;0.32;;;;;;;;;;4975595;28;20077;-86
2022/03/03 11:36:46;;;;;;;0.10;0.10;;;;;;;;;;4975665;28;20042;-87
2022/03/03 11:39:32;;;;;;;0.40;0.40;;;;;;;;;;4959201;28;20676;-86
2022/03/03 11:41:58;;;;;;;0.52;0.20;;;;;;;;;;4991786;28;20054;-87
2022/03/03 11:44:35;;;;;;;0.40;0.28;;;;;;;;;;4975194;28;20046;-87
2022/03/03 11:47:01;;;;;;;0.20;0.20;;;;;;;;;;4975250;28;20048;-87
2022/03/03 11:49:29;;;;;;;1.85;0.50;;;;;;;;;;4975029;28;20047;-87
2022/03/03 11:51:55;;;;;;;0.20;0.20;;;;;;;;;;4975762;28;20046;-87
2022/03/03 11:54:28;;;;;;;0.73;0.73;;;;;;;;;;4959445;28;20092;-87
2022/03/03 11:57:04;;;;;;;0.20;0.20;;;;;;;;;;4962780;28;20072;-87
2022/03/03 11:59:33;;;;;;;0.15;0.15;;;;;;;;;;4995430;28;20099;-87
2022/03/03 12:01:59;;;;;;;0.20;0.20;;;;;;;;;;4963175;28;20070;-87
2022/03/03 12:04:26;;;;;;;0.10;0.10;;;;;;;;;;4979341;28;20046;-87
2022/03/03 12:06:53;;;;;;;0.52;0.30;;;;;;;;;;4979433;28;20509;-86
2022/03/03 12:09:19;;;;;;;0.15;0.15;;;;;;;;;;4963099;28;20045;-86
2022/03/03 12:11:45;;;;;;;0.10;0.10;;;;;;;;;;4979313;28;20039;-86
2022/03/03 12:14:30;;;;;;;0.45;0.45;;;;;;;;;;4979314;28;20100;-87
2022/03/03 12:17:17;;;;;;;0.17;0.17;;;;;;;;;;4995498;28;20034;-86
2022/03/03 12:19:43;;;;;;;0.20;0.20;;;;;;;;;;4994783;28;20046;-88
2022/03/03 12:22:09;;;;;;;0.35;0.22;;;;;;;;;;4979136;28;20077;-86
2022/03/03 12:24:38;;;;;;;0.30;0.30;;;;;;;;;;4978521;28;20039;-87
2022/03/03 12:27:08;;;;;;;0.20;0.20;;;;;;;;;;4962877;28;20049;-87
2022/03/03 12:29:41;;;;;;;0.30;0.30;;;;;;;;;;4978596;28;20125;-86
2022/03/03 12:32:26;;;;;;;0.20;0.20;;;;;;;;;;4995032;28;20092;-87
2022/03/03 12:34:52;;;;;;;0.10;0.10;;;;;;;;;;4962900;28;20046;-87
2022/03/03 12:37:18;;;;;;;0.25;0.25;;;;;;;;;;4978553;28;20045;-87
2022/03/03 12:39:54;;;;;;;0.35;0.32;;;;;;;;;;4978637;28;20445;-86
2022/03/03 12:42:20;;;;;;;0.22;0.22;;;;;;;;;;4962653;28;20077;-87
2022/03/03 12:45:08;;;;;;;0.17;0.17;;;;;;;;;;4978354;28;20046;-87
2022/03/03 12:47:35;;;;;;;0.15;0.15;;;;;;;;;;4962552;28;20038;-86
2022/03/03 12:50:01;;;;;;;0.45;0.45;;;;;;;;;;4978269;28;20048;-87
2022/03/03 12:52:27;;;;;;;0.20;0.20;;;;;;;;;;4962238;28;20073;-87
2022/03/03 12:54:54;;;;;;;1.13;0.38;;;;;;;;;;4961997;28;20435;-87
2022/03/03 12:57:27;;;;;;;0.35;0.35;;;;;;;;;;4978509;28;20042;-87
2022/03/03 12:59:52;;;;;;;1.27;0.60;;;;;;;;;;4978192;28;20125;-87
2022/03/03 13:02:18;;;;;;;0.35;0.20;;;;;;;;;;4978290;28;20125;-86
2022/03/03 13:04:45;;;;;;;0.45;0.30;;;;;;;;;;4977983;28;20050;-86
2022/03/03 13:07:11;;;;;;;0.10;0.10;;;;;;;;;;4977976;28;20498;-86
2022/03/03 13:09:37;;;;;;;0.60;0.60;;;;;;;;;;4978173;28;20046;-87
2022/03/03 13:12:04;;;;;;;0.20;0.20;;;;;;;;;;4962334;28;20248;-87
2022/03/03 13:14:30;;;;;;;0.63;0.40;;;;;;;;;;4994031;28;20035;-86
2022/03/03 13:16:56;;;;;;;0.20;0.20;;;;;;;;;;4961858;28;20042;-87
2022/03/03 13:19:22;;;;;;;0.43;0.43;;;;;;;;;;4977720;28;20046;-88
2022/03/03 13:21:48;;;;;;;0.20;0.20;;;;;;;;;;4962075;28;20454;-87
2022/03/03 13:24:14;;;;;;;2.05;1.35;;;;;;;;;;4961578;28;20046;-86
2022/03/03 13:26:49;;;;;;;0.10;0.10;;;;;;;;;;4993597;28;20042;-87
2022/03/03 13:29:18;;;;;;;0.15;0.15;;;;;;;;;;4977544;28;20046;-86
2022/03/03 13:31:46;;;;;;;0.20;0.20;;;;;;;;;;4977551;28;20050;-87
2022/03/03 13:34:25;;;;;;;0.63;0.63;;;;;;;;;;4977623;28;20528;-86
2022/03/03 13:36:53;;;;;;;0.20;0.20;;;;;;;;;;4977989;28;20105;-87
2022/03/03 13:39:25;;;;;;;0.35;0.35;;;;;;;;;;4977108;28;20044;-86
2022/03/03 13:42:11;;;;;;;0.30;0.30;;;;;;;;;;4993504;28;20046;-87
2022/03/03 13:44:37;;;;;;;1.45;1.35;;;;;;;;;;4993642;28;20120;-86
2022/03/03 13:47:04;;;;;;;2.20;0.82;;;;;;;;;;4993215;28;20519;-87
2022/03/03 13:49:33;;;;;;;0.10;0.10;;;;;;;;;;4977372;28;20486;-87
2022/03/03 13:52:08;;;;;;;0.20;0.20;;;;;;;;;;4993664;28;20129;-86
2022/03/03 13:54:48;;;;;;;0.88;0.28;;;;;;;;;;4993160;28;20046;-87
2022/03/03 13:57:32;;;;;;;0.15;0.15;;;;;;;;;;4961061;28;20038;-87
2022/03/03 13:59:59;;;;;;;0.40;0.40;;;;;;;;;;4977413;28;20389;-87
2022/03/03 14:02:25;;;;;;;0.35;0.35;;;;;;;;;;4976567;28;20058;-86
2022/03/03 14:05:07;;;;;;;0.10;0.10;;;;;;;;;;4992776;28;20541;-86
2022/03/03 14:07:34;;;;;;;0.13;0.13;;;;;;;;;;4993366;28;20104;-86
2022/03/03 14:10:01;;;;;;;0.95;0.60;;;;;;;;;;4993421;28;20042;-87
2022/03/03 14:12:27;;;;;;;0.38;0.38;;;;;;;;;;4976486;28;20038;-87
2022/03/03 14:14:53;;;;;;;0.75;0.52;;;;;;;;;;4992986;28;20031;-86
2022/03/03 14:17:19;;;;;;;0.20;0.20;;;;;;;;;;4976375;28;20042;-87
2022/03/03 14:19:46;;;;;;;0.52;0.30;;;;;;;;;;4975814;28;20046;-87
2022/03/03 14:22:12;;;;;;;0.20;0.20;;;;;;;;;;4976693;28;20047;-86
2022/03/03 14:24:39;;;;;;;0.28;0.28;;;;;;;;;;4960610;28;20078;-87
2022/03/03 14:27:05;;;;;;;4.85;0.40;;;;;;;;;;4978221;28;20490;-87
2022/03/03 14:29:31;;;;;;;0.13;0.13;;;;;;;;;;4977024;28;20054;-87
2022/03/03 14:31:57;;;;;;;0.30;0.30;;;;;;;;;;4976571;28;20455;-87
2022/03/03 14:34:23;;;;;;;0.10;0.10;;;;;;;;;;4976254;28;20566;-86
2022/03/03 14:36:49;;;;;;;0.10;0.10;;;;;;;;;;4977995;28;20034;-86
2022/03/03 14:39:15;;;;;;;0.22;0.22;;;;;;;;;;4976639;28;20402;-86
2022/03/03 14:41:41;;;;;;;0.20;0.20;;;;;;;;;;4976520;28;20178;-88
2022/03/03 14:44:07;;;;;;;0.30;0.30;;;;;;;;;;4976460;28;20038;-86
2022/03/03 14:46:33;;;;;;;0.30;0.28;;;;;;;;;;4976531;28;20084;-87